Puerto Banus, Marbella

>

This is an optional block (switch it off / on) in the settings - file ($SITE['banners'] = false;)

You can display ads, any other important text or photo’s using text / html or PHP code.

You can place one or more at the top and or bottom and it can all be different for content / size .



Meteosat more information blitzortung!


Radar lluvias  rain snow radar


Visita nuestra red de sitios de meteo:

Documentation for the template used

MeteoibericaRed estaciones Meteorologicas

MeteoclimaticRed estaciones Meteorologicas



Sin Advertencias climatologicas .En este momento tenemos Nivel Verde.    No hay Alarmas

Pagina Historial Weather Underground texto

Diario Resumen Noviembre 18, 2017 Unidades:  Métrico    impérial   Tanto
« Anterior Dia
Siguiente Dia »
Diario Semana Mensual Anual Personalizada
  Actual: Maxima: Minima: Media:
Temperatura: 10.5 °C 12.1 °C 10.5 °C 11.3 °C
Punto de rocío: 7.0 °C 10.2 °C 7.0 °C 8.7 °C
Humedad: 79 % 88 % 79 % 84 %
Velocidad del Viento: 18.5 km/h 18.5 km/h 9.7 km/h 13.8 km/h
Ráfagas de viento: 18.5 km/h 18.5 km/h - -
Viento:North - - NNW
Pression baro: 1018.5 hPa 1019.2 hPa 1018.2 hPa -
Précipitaciones: 0.0 mm      
Historical Graphs
 
 
Datos de tabla para Noviembre 18, 2017
Tiempo Temperatura Punto de rocío Pression baro Viento Velocidad del Viento Ráfagas de viento Humedad Las precipitaciones Rate ( Hora )
00:03 12.1 °C 10.2 °C 1019.2 hPa North 11.1 km/h 11.1 km/h 88 % 0.0 mm
00:08 12.1 °C 10.1 °C 1019.2 hPa North 13.0 km/h 13.0 km/h 88 % 0.0 mm
00:13 12.1 °C 10.1 °C 1019.2 hPa NNW 13.0 km/h 13.0 km/h 88 % 0.0 mm
00:18 12.1 °C 10.1 °C 1019.2 hPa NNW 13.0 km/h 13.0 km/h 88 % 0.0 mm
00:23 12.1 °C 10.1 °C 1019.2 hPa North 13.0 km/h 13.0 km/h 88 % 0.0 mm
00:28 12.1 °C 10.1 °C 1019.2 hPa North 11.3 km/h 11.3 km/h 88 % 0.0 mm
00:33 12.0 °C 10.1 °C 1019.2 hPa North 11.3 km/h 11.3 km/h 88 % 0.0 mm
00:38 12.0 °C 9.9 °C 1019.2 hPa NNW 11.1 km/h 11.1 km/h 87 % 0.0 mm
00:43 12.0 °C 9.9 °C 1019.2 hPa NNW 11.3 km/h 11.3 km/h 87 % 0.0 mm
00:48 11.9 °C 9.8 °C 1019.2 hPa North 11.1 km/h 11.1 km/h 87 % 0.0 mm
00:53 12.0 °C 9.9 °C 1019.2 hPa North 9.7 km/h 9.7 km/h 87 % 0.0 mm
00:58 11.9 °C 9.8 °C 1019.2 hPa NNW 11.1 km/h 11.1 km/h 87 % 0.0 mm
01:03 11.9 °C 9.8 °C 1019.2 hPa North 13.0 km/h 13.0 km/h 87 % 0.0 mm
01:09 11.8 °C 9.7 °C 1019.2 hPa NNW 13.0 km/h 13.0 km/h 87 % 0.0 mm
01:14 11.8 °C 9.7 °C 1019.2 hPa North 11.1 km/h 11.1 km/h 87 % 0.0 mm
01:19 11.8 °C 9.7 °C 1018.8 hPa North 11.3 km/h 11.3 km/h 87 % 0.0 mm
01:24 11.7 °C 9.6 °C 1018.8 hPa North 11.3 km/h 11.3 km/h 87 % 0.0 mm
01:29 11.7 °C 9.6 °C 1018.8 hPa North 14.8 km/h 14.8 km/h 87 % 0.0 mm
01:34 11.7 °C 9.6 °C 1018.8 hPa NNW 11.1 km/h 11.1 km/h 87 % 0.0 mm
01:39 11.7 °C 9.6 °C 1018.8 hPa NNW 14.8 km/h 14.8 km/h 87 % 0.0 mm
01:44 11.7 °C 9.4 °C 1018.8 hPa NNW 13.0 km/h 13.0 km/h 86 % 0.0 mm
01:49 11.7 °C 9.4 °C 1018.8 hPa North 11.3 km/h 11.3 km/h 86 % 0.0 mm
01:54 11.7 °C 9.4 °C 1018.8 hPa NNW 11.1 km/h 11.1 km/h 86 % 0.0 mm
01:59 11.7 °C 9.4 °C 1018.8 hPa North 11.3 km/h 11.3 km/h 86 % 0.0 mm
02:04 11.6 °C 9.3 °C 1018.8 hPa North 14.8 km/h 14.8 km/h 86 % 0.0 mm
02:09 11.6 °C 9.3 °C 1018.8 hPa NNW 12.9 km/h 12.9 km/h 86 % 0.0 mm
02:14 11.6 °C 9.3 °C 1018.8 hPa North 13.0 km/h 13.0 km/h 86 % 0.0 mm
02:19 11.6 °C 9.3 °C 1018.8 hPa North 14.8 km/h 14.8 km/h 86 % 0.0 mm
02:24 11.5 °C 9.2 °C 1018.8 hPa North 14.8 km/h 14.8 km/h 86 % 0.0 mm
02:29 11.4 °C 9.0 °C 1018.8 hPa North 13.0 km/h 13.0 km/h 85 % 0.0 mm
02:34 11.4 °C 9.2 °C 1018.8 hPa NNW 13.0 km/h 13.0 km/h 86 % 0.0 mm
02:39 11.4 °C 9.1 °C 1018.8 hPa North 13.0 km/h 13.0 km/h 86 % 0.0 mm
02:44 11.3 °C 9.1 °C 1018.8 hPa North 14.8 km/h 14.8 km/h 86 % 0.0 mm
02:49 11.3 °C 8.9 °C 1018.8 hPa North 13.0 km/h 13.0 km/h 85 % 0.0 mm
02:54 11.3 °C 8.8 °C 1018.8 hPa NNW 14.8 km/h 14.8 km/h 85 % 0.0 mm
02:59 11.3 °C 8.8 °C 1018.8 hPa North 13.0 km/h 13.0 km/h 85 % 0.0 mm
03:04 11.3 °C 8.8 °C 1018.8 hPa North 16.7 km/h 16.7 km/h 85 % 0.0 mm
03:09 11.3 °C 8.8 °C 1018.8 hPa NNW 14.8 km/h 14.8 km/h 85 % 0.0 mm
03:14 11.3 °C 8.8 °C 1018.8 hPa North 14.8 km/h 14.8 km/h 85 % 0.0 mm
03:19 11.3 °C 8.8 °C 1018.5 hPa NNW 14.8 km/h 14.8 km/h 85 % 0.0 mm
03:24 11.3 °C 8.7 °C 1018.8 hPa North 14.8 km/h 14.8 km/h 84 % 0.0 mm
03:29 11.2 °C 8.6 °C 1018.5 hPa North 14.8 km/h 14.8 km/h 84 % 0.0 mm
03:34 11.2 °C 8.6 °C 1018.5 hPa North 16.7 km/h 16.7 km/h 84 % 0.0 mm
03:39 11.2 °C 8.6 °C 1018.5 hPa North 14.8 km/h 14.8 km/h 84 % 0.0 mm
03:44 11.2 °C 8.6 °C 1018.5 hPa North 14.8 km/h 14.8 km/h 84 % 0.0 mm
03:49 11.2 °C 8.6 °C 1018.5 hPa North 13.0 km/h 13.0 km/h 84 % 0.0 mm
03:54 11.2 °C 8.4 °C 1018.5 hPa North 14.8 km/h 14.8 km/h 83 % 0.0 mm
03:59 11.2 °C 8.4 °C 1018.5 hPa North 13.0 km/h 13.0 km/h 83 % 0.0 mm
04:04 11.2 °C 8.4 °C 1018.5 hPa North 16.7 km/h 16.7 km/h 83 % 0.0 mm
04:09 11.2 °C 8.4 °C 1018.5 hPa North 13.0 km/h 13.0 km/h 83 % 0.0 mm
04:25 11.1 °C 8.3 °C 1018.5 hPa NNW 16.7 km/h 16.7 km/h 83 % 0.0 mm
04:26 11.1 °C 8.3 °C 1018.5 hPa North 16.7 km/h 16.7 km/h 83 % 0.0 mm
04:31 11.1 °C 8.3 °C 1018.5 hPa North 14.8 km/h 14.8 km/h 83 % 0.0 mm
04:36 11.1 °C 8.3 °C 1018.5 hPa North 14.8 km/h 14.8 km/h 83 % 0.0 mm
04:41 11.1 °C 8.3 °C 1018.5 hPa North 16.7 km/h 16.7 km/h 83 % 0.0 mm
04:46 11.1 °C 8.1 °C 1018.5 hPa North 14.8 km/h 14.8 km/h 82 % 0.0 mm
04:51 11.1 °C 8.1 °C 1018.5 hPa NNW 13.0 km/h 13.0 km/h 82 % 0.0 mm
04:56 11.1 °C 8.1 °C 1018.2 hPa North 16.7 km/h 16.7 km/h 82 % 0.0 mm
05:01 11.1 °C 8.1 °C 1018.2 hPa North 13.0 km/h 13.0 km/h 82 % 0.0 mm
05:06 11.1 °C 8.1 °C 1018.2 hPa North 13.0 km/h 13.0 km/h 82 % 0.0 mm
05:07 11.1 °C 8.1 °C 1018.2 hPa North 14.5 km/h 14.5 km/h 82 % 0.0 mm
05:12 11.1 °C 7.9 °C 1018.5 hPa North 14.8 km/h 14.8 km/h 81 % 0.0 mm
05:17 11.0 °C 7.9 °C 1018.5 hPa NNW 16.7 km/h 16.7 km/h 81 % 0.0 mm
05:22 11.0 °C 8.1 °C 1018.5 hPa North 13.0 km/h 13.0 km/h 82 % 0.0 mm
05:27 11.0 °C 8.1 °C 1018.5 hPa North 14.8 km/h 14.8 km/h 82 % 0.0 mm
05:32 11.0 °C 8.1 °C 1018.5 hPa North 13.0 km/h 13.0 km/h 82 % 0.0 mm
05:37 10.9 °C 8.0 °C 1018.5 hPa North 14.8 km/h 14.8 km/h 82 % 0.0 mm
05:42 10.9 °C 8.0 °C 1018.2 hPa North 14.8 km/h 14.8 km/h 82 % 0.0 mm
05:47 10.9 °C 7.9 °C 1018.5 hPa NNW 16.7 km/h 16.7 km/h 82 % 0.0 mm
05:52 10.8 °C 7.9 °C 1018.5 hPa North 14.8 km/h 14.8 km/h 82 % 0.0 mm
05:57 10.8 °C 7.9 °C 1018.5 hPa NNW 14.8 km/h 14.8 km/h 82 % 0.0 mm
06:02 10.8 °C 7.8 °C 1018.5 hPa North 13.0 km/h 13.0 km/h 82 % 0.0 mm
06:07 10.8 °C 7.7 °C 1018.5 hPa North 13.0 km/h 13.0 km/h 81 % 0.0 mm
06:12 10.7 °C 7.6 °C 1018.5 hPa North 13.0 km/h 13.0 km/h 81 % 0.0 mm
06:17 10.7 °C 7.6 °C 1018.5 hPa NNW 14.8 km/h 14.8 km/h 81 % 0.0 mm
06:22 10.7 °C 7.6 °C 1018.5 hPa North 14.5 km/h 14.5 km/h 81 % 0.0 mm
06:27 10.6 °C 7.5 °C 1018.5 hPa North 13.0 km/h 13.0 km/h 81 % 0.0 mm
06:32 10.6 °C 7.5 °C 1018.5 hPa North 14.8 km/h 14.8 km/h 81 % 0.0 mm
06:37 10.6 °C 7.5 °C 1018.5 hPa North 14.8 km/h 14.8 km/h 81 % 0.0 mm
06:42 10.6 °C 7.4 °C 1018.5 hPa North 14.8 km/h 14.8 km/h 81 % 0.0 mm
06:47 10.6 °C 7.2 °C 1018.5 hPa North 16.7 km/h 16.7 km/h 80 % 0.0 mm
06:52 10.6 °C 7.3 °C 1018.5 hPa North 13.0 km/h 13.0 km/h 80 % 0.0 mm
06:57 10.6 °C 7.2 °C 1018.5 hPa NNW 13.0 km/h 13.0 km/h 80 % 0.0 mm
07:02 10.6 °C 7.2 °C 1018.5 hPa North 14.8 km/h 14.8 km/h 80 % 0.0 mm
07:07 10.5 °C 7.2 °C 1018.5 hPa North 13.0 km/h 13.0 km/h 80 % 0.0 mm
07:12 10.5 °C 7.0 °C 1018.5 hPa North 18.5 km/h 18.5 km/h 79 % 0.0 mm
Puerto Banus, Marbella
Elogios de Weather Underground - 1.25 mb

Guión original por  Jim McMurry - jmcmurry@mwt.net Adaptado para la plantilla por  Wim van der Kuil - Leuven-Template.eu

Usted encontrará nuestra información del tiempo también en:

Weather Underground

Iberian Peninsula Weather Network